Time;durP1;ratioP1;P1;durP2;ratioP2;P2;SDS_P1;SDS_P2;PMS_P1;PMS_P2;Temp;Humidity;BMP_temperature;BMP_pressure;BME280_temperature;BME280_humidity;BME280_pressure;Samples;Min_cycle;Max_cycle;Signal;HPM_P1;HPM_P2
2021/07/14 00:02:16;;;;;;;21.98;19.65;;;;;;;23.48;66.90;99207.16;6067310;23;20023;-85
2021/07/14 00:04:43;;;;;;;23.42;21.02;;;;;;;23.49;67.20;99206.13;6066691;23;20023;-84
2021/07/14 00:07:09;;;;;;;22.67;20.35;;;;;;;23.49;67.18;99208.81;6065385;23;20037;-87
2021/07/14 00:09:36;;;;;;;22.23;19.88;;;;;;;23.49;67.25;99215.03;6067093;23;20029;-86
2021/07/14 00:12:06;;;;;;;22.75;20.35;;;;;;;23.50;67.15;99208.63;6066963;23;20027;-87
2021/07/14 00:17:26;;;;;;;23.50;20.88;;;;;;;23.48;67.30;99208.00;6067759;23;20026;-86
2021/07/14 00:22:39;;;;;;;24.58;22.00;;;;;;;23.49;67.29;99203.44;6067951;23;20023;-87
2021/07/14 00:25:11;;;;;;;22.52;20.17;;;;;;;23.47;67.07;99205.50;6066910;23;20467;-87
2021/07/14 00:27:44;;;;;;;24.05;21.58;;;;;;;23.45;67.29;99205.66;6067003;23;20034;-87
2021/07/14 00:30:15;;;;;;;21.77;19.55;;;;;;;23.46;67.36;99206.47;6067164;23;20743;-87
2021/07/14 00:32:42;;;;;;;22.42;20.02;;;;;;;23.47;67.11;99200.13;6065483;23;20026;-86
2021/07/14 00:35:11;;;;;;;23.95;20.92;;;;;;;23.46;67.26;99210.00;6065505;23;20019;-87
2021/07/14 00:37:38;;;;;;;23.38;20.98;;;;;;;23.45;67.36;99207.50;6065882;23;20354;-87
2021/07/14 00:40:08;;;;;;;22.58;20.17;;;;;;;23.44;67.13;99206.69;6066732;23;20030;-85
2021/07/14 00:42:35;;;;;;;23.65;21.15;;;;;;;23.43;67.21;99200.47;6065702;23;20098;-86
2021/07/14 00:45:02;;;;;;;24.25;21.67;;;;;;;23.42;67.25;99195.28;6065358;23;20102;-88
2021/07/14 00:47:32;;;;;;;24.50;20.48;;;;;;;23.43;67.50;99196.94;6068211;23;20482;-86
2021/07/14 00:50:00;;;;;;;26.80;22.20;;;;;;;23.43;67.53;99186.19;6068730;23;20030;-86
2021/07/14 00:52:27;;;;;;;22.48;20.17;;;;;;;23.42;67.28;99181.84;6068348;23;20034;-86
2021/07/14 00:54:55;;;;;;;23.90;21.38;;;;;;;23.41;67.51;99181.00;6067189;23;20019;-86
2021/07/14 00:57:25;;;;;;;25.25;22.48;;;;;;;23.41;67.47;99191.75;6068637;23;20030;-86
2021/07/14 00:59:52;;;;;;;25.15;22.27;;;;;;;23.40;67.15;99187.41;6067307;23;20027;-86
2021/07/14 01:02:19;;;;;;;26.65;21.77;;;;;;;23.39;67.42;99187.59;6066823;23;20478;-86
2021/07/14 01:04:53;;;;;;;24.77;21.75;;;;;;;23.38;67.77;99188.63;6066934;23;20027;-87
2021/07/14 01:07:27;;;;;;;23.42;20.92;;;;;;;23.37;67.87;99192.34;6066897;23;20054;-87
2021/07/14 01:09:58;;;;;;;24.77;21.98;;;;;;;23.36;67.65;99185.31;6067405;23;20033;-88
2021/07/14 01:13:09;;;;;;;23.52;20.92;;;;;;;23.32;68.01;99200.91;6066901;23;20022;-87
2021/07/14 01:15:43;;;;;;;22.08;19.75;;;;;;;23.38;67.75;99196.66;6002197;23;20027;-86
2021/07/14 01:18:26;;;;;;;23.10;20.83;;;;;;;23.34;67.84;99192.69;6066958;23;20022;-87
2021/07/14 01:20:58;;;;;;;23.48;20.88;;;;;;;23.35;68.08;99195.19;6067336;23;20023;-87
2021/07/14 01:23:44;;;;;;;24.20;20.60;;;;;;;23.33;68.12;99188.31;6066588;23;20464;-87
2021/07/14 01:26:13;;;;;;;23.65;21.13;;;;;;;23.34;67.82;99184.63;6067117;23;20023;-87
2021/07/14 01:28:44;;;;;;;26.30;20.13;;;;;;;23.35;67.80;99183.59;6066259;23;20027;-87
2021/07/14 01:31:13;;;;;;;24.40;21.70;;;;;;;23.35;68.07;99178.25;6066803;23;20076;-88
2021/07/14 01:33:43;;;;;;;23.40;20.58;;;;;;;23.34;68.09;99184.63;6066467;23;20471;-87
2021/07/14 01:36:15;;;;;;;23.55;21.08;;;;;;;23.34;68.01;99181.94;6066655;23;20337;-87
2021/07/14 01:38:44;;;;;;;22.50;20.05;;;;;;;23.33;68.06;99177.56;6068818;23;20030;-85
2021/07/14 01:41:14;;;;;;;23.52;20.52;;;;;;;23.33;67.99;99170.38;6070140;23;20030;-85
2021/07/14 01:43:45;;;;;;;27.58;20.60;;;;;;;23.32;68.20;99166.00;6069528;23;20027;-86
2021/07/14 01:46:13;;;;;;;23.40;20.67;;;;;;;23.33;68.01;99166.84;6068560;23;20356;-85
2021/07/14 01:48:43;;;;;;;24.38;20.92;;;;;;;23.32;68.37;99160.63;6068198;23;20026;-86
2021/07/14 01:51:11;;;;;;;23.35;20.92;;;;;;;23.33;67.90;99167.69;6067926;23;20026;-86
2021/07/14 01:53:38;;;;;;;25.00;21.60;;;;;;;23.32;68.31;99168.69;6066769;23;20355;-86
2021/07/14 01:56:09;;;;;;;25.70;21.73;;;;;;;23.30;68.09;99158.13;6067651;23;20022;-85
2021/07/14 01:58:38;;;;;;;24.65;20.77;;;;;;;23.32;68.23;99162.50;6066833;23;20031;-85
2021/07/14 02:01:06;;;;;;;26.10;22.20;;;;;;;23.30;68.28;99151.94;6066845;23;20034;-85
2021/07/14 02:06:04;;;;;;;30.55;21.92;;;;;;;23.29;67.94;99151.09;6067442;23;20025;-86
2021/07/14 02:08:35;;;;;;;33.97;22.95;;;;;;;23.28;68.67;99154.78;6066917;23;20033;-86
2021/07/14 02:11:02;;;;;;;28.08;22.58;;;;;;;23.30;68.07;99149.25;6068312;23;20027;-85
2021/07/14 02:13:31;;;;;;;27.80;22.30;;;;;;;23.27;68.14;99150.44;6068270;23;20355;-84
2021/07/14 02:16:01;;;;;;;31.27;23.25;;;;;;;23.26;68.65;99138.06;6066029;23;20494;-84
2021/07/14 02:18:38;;;;;;;27.10;23.88;;;;;;;23.23;68.86;99143.78;6068293;23;20191;-84
2021/07/14 02:21:05;;;;;;;25.55;22.65;;;;;;;23.26;68.24;99137.22;6067858;23;20034;-84
2021/07/14 02:23:34;;;;;;;26.17;23.17;;;;;;;23.24;68.57;99147.28;6066664;23;20399;-85
2021/07/14 02:26:02;;;;;;;29.17;23.33;;;;;;;23.23;68.65;99138.41;6067727;23;20019;-84
2021/07/14 02:28:29;;;;;;;31.10;24.63;;;;;;;23.23;68.56;99142.94;6067514;23;20354;-85
2021/07/14 02:30:56;;;;;;;30.95;24.65;;;;;;;23.21;68.48;99123.50;6069288;23;20027;-85
2021/07/14 02:33:23;;;;;;;31.90;25.27;;;;;;;23.20;68.28;99132.56;6069931;23;20023;-88
2021/07/14 02:35:53;;;;;;;31.05;24.58;;;;;;;23.19;68.49;99134.44;6067605;23;20019;-85
2021/07/14 02:38:26;;;;;;;29.60;24.00;;;;;;;23.17;68.44;99137.31;6068155;23;20034;-84
2021/07/14 02:40:58;;;;;;;;;;;;;;;23.15;68.63;99138.50;6070049;23;20383;-85
2021/07/14 02:43:27;;;;;;;30.27;24.95;;;;;;;23.18;68.23;99138.16;6069076;23;19933;-86
2021/07/14 02:45:57;;;;;;;28.17;23.67;;;;;;;23.16;68.49;99145.53;6067320;23;20026;-86
2021/07/14 02:48:28;;;;;;;34.83;25.13;;;;;;;23.11;69.13;99132.69;6067848;23;20030;-86
2021/07/14 02:50:57;;;;;;;31.70;25.38;;;;;;;23.11;68.83;99131.84;6066747;23;20023;-85
2021/07/14 02:53:33;;;;;;;31.50;25.55;;;;;;;23.07;69.42;99125.16;6068624;23;20027;-83
2021/07/14 02:56:06;;;;;;;29.75;25.33;;;;;;;23.10;69.27;99143.59;6069542;23;20023;-84
2021/07/14 02:58:34;;;;;;;32.22;24.55;;;;;;;23.11;69.15;99137.22;6067724;23;20023;-85
2021/07/14 03:01:02;;;;;;;31.17;24.75;;;;;;;23.10;68.98;99138.22;6068357;23;20030;-86
2021/07/14 03:03:29;;;;;;;33.40;24.98;;;;;;;23.10;69.00;99130.19;6069706;23;20396;-85
2021/07/14 03:06:01;;;;;;;28.50;24.88;;;;;;;23.09;68.87;99132.03;6070447;23;20029;-84
2021/07/14 03:08:31;;;;;;;30.65;25.35;;;;;;;23.08;69.27;99134.88;6068058;23;20027;-86
2021/07/14 03:10:59;;;;;;;33.55;26.23;;;;;;;23.08;69.24;99137.56;6067032;23;20042;-85
2021/07/14 03:13:29;;;;;;;35.45;27.02;;;;;;;23.07;69.18;99134.06;6066542;23;20027;-86
2021/07/14 03:15:58;;;;;;;29.02;25.00;;;;;;;23.07;69.22;99130.53;6067699;23;20030;-84
2021/07/14 03:18:28;;;;;;;37.50;27.10;;;;;;;23.06;69.50;99135.06;6070340;23;20336;-85
2021/07/14 03:20:57;;;;;;;29.35;23.92;;;;;;;23.06;69.43;99129.69;6070136;23;20078;-85
2021/07/14 03:23:24;;;;;;;33.65;25.80;;;;;;;23.07;69.37;99130.53;6068709;23;20522;-84
2021/07/14 03:25:52;;;;;;;35.58;26.55;;;;;;;23.06;69.37;99121.66;6067138;23;20026;-84
2021/07/14 03:28:21;;;;;;;37.25;26.13;;;;;;;23.05;69.60;99120.00;6066268;23;20105;-85
2021/07/14 03:30:48;;;;;;;36.50;26.30;;;;;;;23.07;69.52;99119.81;6067434;23;20034;-85
2021/07/14 03:33:15;;;;;;;30.55;25.45;;;;;;;23.05;69.45;99122.66;6066247;23;20023;-85
2021/07/14 03:35:43;;;;;;;38.42;27.88;;;;;;;23.06;69.54;99129.69;6067082;23;20486;-84
2021/07/14 03:38:11;;;;;;;34.40;25.95;;;;;;;23.06;69.69;99128.88;6067245;23;20031;-85
2021/07/14 03:40:42;;;;;;;33.65;27.58;;;;;;;23.04;69.55;99129.91;6067306;23;20045;-84
2021/07/14 03:43:10;;;;;;;37.67;27.90;;;;;;;23.06;69.44;99132.38;6067283;23;20026;-86
2021/07/14 03:45:39;;;;;;;31.88;26.67;;;;;;;23.08;69.54;99134.88;6067536;23;20806;-85
2021/07/14 03:48:06;;;;;;;41.55;28.02;;;;;;;23.09;69.68;99132.03;6066076;23;20030;-85
2021/07/14 03:50:38;;;;;;;35.80;26.63;;;;;;;23.10;69.70;99140.91;6070045;23;20027;-86
2021/07/14 03:53:04;;;;;;;32.42;27.42;;;;;;;23.10;69.57;99138.22;6069385;23;20030;-86
2021/07/14 03:55:33;;;;;;;38.47;28.33;;;;;;;23.10;69.36;99130.19;6067646;23;20023;-82
2021/07/14 03:57:59;;;;;;;33.65;27.98;;;;;;;23.10;69.62;99131.00;6071439;23;20027;-85
2021/07/14 04:00:26;;;;;;;37.50;26.85;;;;;;;23.11;69.60;99140.75;6071094;23;20038;-85
2021/07/14 04:02:54;;;;;;;44.75;29.20;;;;;;;23.10;69.66;99136.38;6069336;23;20026;-81
2021/07/14 04:05:20;;;;;;;39.85;29.38;;;;;;;23.11;69.74;99137.22;6069209;23;20029;-84
2021/07/14 04:07:51;;;;;;;46.42;30.55;;;;;;;23.10;69.76;99140.91;6067658;23;20022;-86
2021/07/14 04:10:18;;;;;;;38.25;29.33;;;;;;;23.11;69.62;99143.44;6068635;23;20027;-86
2021/07/14 04:12:46;;;;;;;43.30;32.22;;;;;;;23.12;69.88;99149.59;6067664;23;20031;-85
2021/07/14 04:15:12;;;;;;;42.35;31.83;;;;;;;23.13;69.66;99153.94;6067943;23;20085;-85
2021/07/14 04:17:39;;;;;;;42.60;30.60;;;;;;;23.14;69.73;99147.59;6065377;23;20037;-85
2021/07/14 04:20:06;;;;;;;39.78;31.10;;;;;;;23.14;70.08;99151.09;6066871;23;20154;-86
2021/07/14 04:22:33;;;;;;;40.72;29.90;;;;;;;23.16;69.71;99143.69;6067422;23;20027;-83
2021/07/14 04:25:00;;;;;;;44.45;29.52;;;;;;;23.17;69.94;99139.13;6069530;23;20034;-86
2021/07/14 04:27:27;;;;;;;39.53;27.83;;;;;;;23.17;69.50;99144.50;6069456;23;20395;-85
2021/07/14 04:29:53;;;;;;;37.90;27.83;;;;;;;23.17;69.84;99139.97;6068976;23;20027;-86
2021/07/14 04:32:20;;;;;;;38.03;28.17;;;;;;;23.17;69.55;99136.44;6068893;23;20050;-84
2021/07/14 04:34:46;;;;;;;49.05;29.73;;;;;;;23.16;69.94;99140.16;6068692;23;20030;-84
2021/07/14 04:37:13;;;;;;;42.13;28.38;;;;;;;23.16;69.87;99140.16;6069345;23;20019;-86
2021/07/14 04:39:39;;;;;;;61.05;30.35;;;;;;;23.16;69.55;99137.47;6067862;23;20034;-83
2021/07/14 04:42:06;;;;;;;36.40;27.52;;;;;;;23.15;69.52;99133.97;6068986;23;20471;-83
2021/07/14 04:44:37;;;;;;;51.25;26.23;;;;;;;23.14;70.13;99134.97;6069180;23;20026;-82
2021/07/14 04:47:04;;;;;;;34.40;26.08;;;;;;;23.14;69.67;99134.16;6069186;23;20046;-84
2021/07/14 04:49:31;;;;;;;40.72;26.83;;;;;;;23.13;69.83;99132.47;6067235;23;20026;-86
2021/07/14 04:51:58;;;;;;;45.20;26.17;;;;;;;23.12;69.60;99130.81;6067415;23;20023;-84
2021/07/14 04:54:24;;;;;;;40.30;25.65;;;;;;;23.11;69.91;99132.69;6068546;23;20023;-85
2021/07/14 04:56:51;;;;;;;84.72;27.38;;;;;;;23.10;69.91;99131.00;6067404;23;20034;-84
2021/07/14 04:59:18;;;;;;;35.78;25.45;;;;;;;23.10;69.89;99127.50;6069176;23;20026;-84
2021/07/14 05:01:46;;;;;;;39.03;25.90;;;;;;;23.10;70.17;99127.50;6069759;23;20035;-85
2021/07/14 05:04:13;;;;;;;36.15;25.35;;;;;;;23.08;70.14;99125.00;6067782;23;20058;-83
2021/07/14 05:06:40;;;;;;;32.58;25.60;;;;;;;23.08;69.98;99129.50;6069539;23;20463;-85
2021/07/14 05:09:08;;;;;;;35.17;25.65;;;;;;;23.08;69.97;99127.69;6069696;23;20030;-82
2021/07/14 05:11:35;;;;;;;43.60;25.95;;;;;;;23.07;70.20;99123.34;6070762;23;20026;-82
2021/07/14 05:14:02;;;;;;;45.10;25.85;;;;;;;23.04;70.13;99124.53;6069628;23;20031;-82
2021/07/14 05:16:28;;;;;;;48.25;26.38;;;;;;;23.06;70.32;99120.84;6069628;23;20052;-83
2021/07/14 05:18:55;;;;;;;44.08;25.85;;;;;;;23.03;70.28;99119.34;6069210;23;20098;-85
2021/07/14 05:21:22;;;;;;;51.70;26.15;;;;;;;23.03;70.32;99120.16;6067816;23;20106;-84
2021/07/14 05:23:49;;;;;;;36.28;25.90;;;;;;;23.04;70.20;99129.06;6069173;23;20029;-83
2021/07/14 05:26:17;;;;;;;36.97;26.80;;;;;;;23.04;70.40;99129.06;6067789;23;20019;-82
2021/07/14 05:28:45;;;;;;;32.35;25.80;;;;;;;23.04;70.20;99124.53;6069631;23;20029;-83
2021/07/14 05:31:12;;;;;;;36.30;26.92;;;;;;;23.07;70.53;99122.50;6068507;23;20027;-82
2021/07/14 05:33:40;;;;;;;33.00;24.92;;;;;;;23.07;70.45;99122.50;6066735;23;20030;-82
2021/07/14 05:36:06;;;;;;;37.00;26.80;;;;;;;23.09;70.14;99132.03;6066990;23;20046;-82
2021/07/14 05:38:33;;;;;;;34.88;26.92;;;;;;;23.10;70.50;99127.50;6068421;23;20026;-84
2021/07/14 05:41:00;;;;;;;34.25;26.33;;;;;;;23.10;70.33;99138.22;6067841;23;20034;-84
2021/07/14 05:43:27;;;;;;;38.15;27.77;;;;;;;23.10;70.24;99139.06;6068419;23;20023;-86
2021/07/14 05:45:55;;;;;;;34.53;25.45;;;;;;;23.11;70.37;99147.94;6066448;23;20033;-85
2021/07/14 05:48:22;;;;;;;33.17;23.90;;;;;;;23.10;70.20;99149.78;6068360;23;20027;-86
2021/07/14 05:50:50;;;;;;;28.98;23.98;;;;;;;23.13;70.15;99153.94;6066744;23;20034;-84
2021/07/14 05:53:16;;;;;;;30.40;24.25;;;;;;;23.13;70.22;99156.63;6066556;23;20371;-85
2021/07/14 05:55:43;;;;;;;31.50;22.40;;;;;;;23.14;70.34;99147.59;6067233;23;20023;-85
2021/07/14 05:58:11;;;;;;;29.08;23.50;;;;;;;23.14;70.20;99151.09;6066432;23;20026;-85
2021/07/14 06:00:38;;;;;;;24.00;21.33;;;;;;;23.15;70.16;99154.63;6067804;23;20027;-85
2021/07/14 06:03:05;;;;;;;28.58;21.42;;;;;;;23.15;70.08;99151.94;6066260;23;20031;-86
2021/07/14 06:05:33;;;;;;;29.35;21.95;;;;;;;23.15;70.31;99158.16;6067652;23;20027;-85
2021/07/14 06:08:00;;;;;;;29.55;22.77;;;;;;;23.16;70.55;99156.28;6067935;23;20030;-86
2021/07/14 06:10:28;;;;;;;29.70;24.20;;;;;;;23.17;70.24;99163.31;6067397;23;20033;-85
2021/07/14 06:12:59;;;;;;;33.05;25.40;;;;;;;23.18;70.00;99154.25;6066708;23;20026;-85
2021/07/14 06:15:26;;;;;;;30.25;24.27;;;;;;;23.20;70.23;99162.09;6065910;23;20034;-85
2021/07/14 06:17:54;;;;;;;32.88;25.92;;;;;;;23.19;70.20;99155.91;6067417;23;20033;-85
2021/07/14 06:20:22;;;;;;;37.80;26.75;;;;;;;23.19;70.31;99157.75;6067147;23;20340;-83
2021/07/14 06:22:49;;;;;;;32.53;25.65;;;;;;;23.19;70.14;99153.22;6067808;23;20027;-85
2021/07/14 06:25:15;;;;;;;33.10;26.13;;;;;;;23.20;70.36;99159.41;6067618;23;20023;-84
2021/07/14 06:27:44;;;;;;;30.90;25.95;;;;;;;23.20;69.94;99162.94;6067907;23;20023;-83
2021/07/14 06:30:13;;;;;;;34.15;25.95;;;;;;;23.20;70.07;99156.72;6066390;23;20026;-84
2021/07/14 06:32:40;;;;;;;34.17;26.70;;;;;;;23.21;70.17;99153.03;6066170;23;20465;-85
2021/07/14 06:35:09;;;;;;;31.80;25.77;;;;;;;23.23;70.00;99159.06;6067159;23;20034;-84
2021/07/14 06:37:38;;;;;;;34.55;26.33;;;;;;;23.24;70.07;99163.41;6066315;23;20065;-84
2021/07/14 06:40:07;;;;;;;32.53;25.45;;;;;;;23.23;70.38;99162.56;6067245;23;20026;-83
2021/07/14 06:42:34;;;;;;;34.05;26.65;;;;;;;23.24;70.07;99150.81;6066252;23;20027;-85
2021/07/14 06:45:01;;;;;;;34.65;25.92;;;;;;;23.25;69.93;99157.84;6067314;23;20027;-86
2021/07/14 06:47:27;;;;;;;34.42;26.75;;;;;;;23.27;70.52;99161.19;6067440;23;20038;-84
2021/07/14 06:49:54;;;;;;;35.08;26.88;;;;;;;23.28;69.99;99165.53;6067505;23;20027;-85
2021/07/14 06:52:21;;;;;;;34.55;27.17;;;;;;;23.29;70.01;99161.81;6066287;23;20037;-85
2021/07/14 06:54:47;;;;;;;38.70;28.08;;;;;;;23.30;69.97;99166.16;6065751;23;20534;-84
2021/07/14 06:57:14;;;;;;;34.05;25.27;;;;;;;23.32;69.88;99165.19;6065894;23;20026;-86
2021/07/14 06:59:41;;;;;;;36.00;26.38;;;;;;;23.33;70.14;99162.31;6067731;23;20046;-85
2021/07/14 07:02:07;;;;;;;33.13;26.05;;;;;;;23.34;70.17;99168.53;6066957;23;20034;-86
2021/07/14 07:04:34;;;;;;;33.35;25.70;;;;;;;23.34;69.96;99166.69;6067318;23;20023;-85
2021/07/14 07:07:01;;;;;;;33.45;26.67;;;;;;;23.35;70.28;99165.66;6066891;23;20094;-86
2021/07/14 07:09:27;;;;;;;39.08;28.10;;;;;;;23.35;70.07;99156.75;6066485;23;20034;-84
2021/07/14 07:11:54;;;;;;;31.23;25.10;;;;;;;23.35;70.17;99151.38;6065997;23;20029;-85
2021/07/14 07:14:21;;;;;;;36.88;26.40;;;;;;;23.36;69.83;99139.66;6067338;23;20030;-84
2021/07/14 07:16:47;;;;;;;31.45;24.48;;;;;;;23.36;69.85;99147.69;6067411;23;20058;-87
2021/07/14 07:19:15;;;;;;;34.10;25.20;;;;;;;23.36;70.06;99139.66;6067082;23;20023;-85
2021/07/14 07:21:42;;;;;;;35.40;25.83;;;;;;;23.37;70.12;99138.63;6067623;23;20031;-84
2021/07/14 07:24:08;;;;;;;32.88;26.20;;;;;;;23.38;70.02;99142.97;6065143;23;20026;-86
2021/07/14 07:26:35;;;;;;;36.05;25.42;;;;;;;23.38;70.14;99141.13;6066787;23;20023;-84
2021/07/14 07:29:10;;;;;;;34.80;27.80;;;;;;;23.41;70.45;99139.91;6066947;23;20692;-84
2021/07/14 07:31:37;;;;;;;32.97;25.80;;;;;;;23.42;70.17;99138.88;6067978;23;20033;-84
2021/07/14 07:34:04;;;;;;;31.23;25.23;;;;;;;23.45;70.41;99140.38;6066902;23;20081;-85
2021/07/14 07:36:31;;;;;;;31.30;25.92;;;;;;;23.48;69.91;99138.16;6068429;23;20034;-84
2021/07/14 07:38:57;;;;;;;31.77;24.85;;;;;;;23.49;69.99;99134.44;6069163;23;20033;-84
2021/07/14 07:41:26;;;;;;;30.70;25.02;;;;;;;23.51;70.09;99134.25;6066701;23;20023;-85
2021/07/14 07:43:54;;;;;;;35.22;26.70;;;;;;;23.51;70.14;99129.69;6064558;23;20027;-84
2021/07/14 07:46:22;;;;;;;31.75;25.95;;;;;;;23.53;70.17;99133.03;6067087;23;20023;-85
2021/07/14 07:48:49;;;;;;;34.10;24.90;;;;;;;23.55;70.16;99132.88;6066571;23;20031;-83
2021/07/14 07:51:16;;;;;;;33.03;26.40;;;;;;;23.57;70.11;99141.56;6065466;23;20031;-85
2021/07/14 07:53:42;;;;;;;31.92;26.48;;;;;;;23.58;70.06;99135.16;6066464;23;20034;-86
2021/07/14 07:56:09;;;;;;;34.25;25.98;;;;;;;23.60;69.63;99132.28;6064936;23;20082;-83
2021/07/14 07:58:36;;;;;;;30.13;25.35;;;;;;;23.61;70.18;99131.25;6067251;23;20027;-85
2021/07/14 08:01:03;;;;;;;28.63;24.42;;;;;;;23.62;70.22;99132.94;6066258;23;20327;-86
2021/07/14 08:03:30;;;;;;;31.88;25.10;;;;;;;23.64;70.30;99133.56;6068081;23;20467;-86
2021/07/14 08:05:57;;;;;;;31.88;25.02;;;;;;;23.67;69.97;99135.88;6065717;23;20030;-85
2021/07/14 08:08:24;;;;;;;31.77;24.60;;;;;;;23.70;70.16;99130.16;6066454;23;20027;-85
2021/07/14 08:10:53;;;;;;;32.22;25.30;;;;;;;23.73;70.29;99135.13;6066807;23;20031;-84
2021/07/14 08:13:20;;;;;;;32.17;25.83;;;;;;;23.75;70.32;99138.47;6067309;23;20354;-84
2021/07/14 08:15:47;;;;;;;31.15;24.90;;;;;;;23.79;70.14;99128.16;6065837;23;20768;-85
2021/07/14 08:18:15;;;;;;;30.73;25.77;;;;;;;23.82;70.04;99131.28;6067079;23;20054;-85
2021/07/14 08:20:43;;;;;;;27.67;23.33;;;;;;;23.87;70.11;99129.88;6067616;23;20035;-85
2021/07/14 08:23:13;;;;;;;34.88;25.40;;;;;;;23.90;70.32;99124.16;6065533;23;20054;-84
2021/07/14 08:25:40;;;;;;;30.60;25.90;;;;;;;23.98;70.21;99139.31;6066759;23;20089;-84
2021/07/14 08:28:06;;;;;;;33.25;26.33;;;;;;;24.03;69.80;99140.41;6066889;23;20049;-85
2021/07/14 08:30:33;;;;;;;29.77;25.63;;;;;;;24.08;70.00;99135.28;6065171;23;20031;-83
2021/07/14 08:33:00;;;;;;;29.95;25.13;;;;;;;24.15;69.91;99138.06;6065357;23;20027;-85
2021/07/14 08:35:27;;;;;;;29.83;25.00;;;;;;;24.23;70.09;99144.34;6066344;23;20102;-85
2021/07/14 08:37:54;;;;;;;32.30;26.85;;;;;;;24.29;70.08;99141.72;6066861;23;20033;-84
2021/07/14 08:40:21;;;;;;;29.60;26.35;;;;;;;24.38;69.79;99136.22;6066570;23;20027;-85
2021/07/14 08:42:49;;;;;;;35.00;26.30;;;;;;;24.46;70.23;99128.84;6065439;23;20030;-84
2021/07/14 08:45:20;;;;;;;33.40;26.48;;;;;;;24.54;69.89;99117.09;6066686;23;20082;-84
2021/07/14 08:47:47;;;;;;;29.08;25.92;;;;;;;24.66;69.92;99114.72;6066720;23;20033;-84
2021/07/14 08:50:15;;;;;;;31.48;25.70;;;;;;;24.79;69.94;99110.44;6066518;23;20034;-85
2021/07/14 08:52:45;;;;;;;29.50;25.90;;;;;;;24.91;69.68;99108.91;6066161;23;20471;-86
2021/07/14 08:55:14;;;;;;;30.00;24.77;;;;;;;25.03;69.28;99116.41;6066662;23;20522;-84
2021/07/14 08:57:42;;;;;;;28.35;25.20;;;;;;;25.14;68.60;99109.63;6066292;23;20030;-84
2021/07/14 09:00:12;;;;;;;27.55;24.58;;;;;;;25.24;68.47;99112.81;6065690;23;20362;-85
2021/07/14 09:02:41;;;;;;;27.52;24.63;;;;;;;25.30;68.20;99106.63;6065405;23;20030;-84
2021/07/14 09:05:09;;;;;;;26.98;24.02;;;;;;;25.38;67.81;99108.31;6066639;23;20030;-82
2021/07/14 09:07:36;;;;;;;25.75;23.05;;;;;;;25.45;67.65;99111.03;6067032;23;20026;-83
2021/07/14 09:10:06;;;;;;;26.52;23.67;;;;;;;25.48;67.34;99106.06;6068172;23;20101;-83
2021/07/14 09:12:45;;;;;;;27.08;23.63;;;;;;;25.52;67.25;99109.19;6068240;23;20027;-84
2021/07/14 09:15:17;;;;;;;26.15;23.35;;;;;;;25.59;67.12;99110.06;6068219;23;20027;-83
2021/07/14 09:17:52;;;;;;;24.50;21.63;;;;;;;25.65;66.97;99107.59;6066670;23;20456;-83
2021/07/14 09:20:42;;;;;;;25.17;22.38;;;;;;;25.69;66.73;99100.78;6068417;23;20355;-83
2021/07/14 09:23:16;;;;;;;23.48;20.80;;;;;;;25.75;66.73;99097.25;6068256;23;20065;-84
2021/07/14 09:25:56;;;;;;;23.30;20.98;;;;;;;25.80;67.07;99094.81;6066784;23;20023;-84
2021/07/14 09:28:32;;;;;;;21.30;19.17;;;;;;;25.86;66.52;99093.13;6067710;23;20019;-84
2021/07/14 09:31:02;;;;;;;22.98;20.33;;;;;;;25.91;66.35;99095.22;6068422;23;20400;-83
2021/07/14 09:33:30;;;;;;;22.35;20.05;;;;;;;25.95;66.23;99088.38;6067046;23;20097;-84
2021/07/14 09:35:58;;;;;;;23.60;20.30;;;;;;;25.96;65.85;99088.19;6067806;23;20030;-84
2021/07/14 09:38:28;;;;;;;22.45;20.05;;;;;;;25.97;65.90;99084.44;6068578;23;20023;-84
2021/07/14 09:41:21;;;;;;;23.25;20.98;;;;;;;25.95;65.95;99083.00;6068444;23;20022;-84
2021/07/14 09:43:48;;;;;;;22.33;20.08;;;;;;;26.01;65.80;99091.09;6063587;23;20023;-82
2021/07/14 09:46:16;;;;;;;22.77;20.38;;;;;;;26.02;65.76;99087.34;6067337;23;20027;-83
2021/07/14 09:48:46;;;;;;;22.70;20.50;;;;;;;26.03;65.46;99096.28;6068347;23;20102;-86
2021/07/14 09:51:19;;;;;;;22.15;19.95;;;;;;;26.04;65.51;99089.84;6066865;23;20026;-83
2021/07/14 09:53:48;;;;;;;;;;;;;;;26.06;66.23;99098.56;6068719;23;20054;-83
2021/07/14 09:56:17;;;;;;;21.25;19.05;;;;;;;26.13;65.32;99104.78;6067999;23;20310;-84
2021/07/14 09:58:44;;;;;;;20.95;18.92;;;;;;;26.12;65.28;99103.13;6068202;23;20026;-83
2021/07/14 10:01:16;;;;;;;21.38;19.23;;;;;;;26.10;65.06;99097.13;6068010;23;20023;-85
2021/07/14 10:03:52;;;;;;;25.48;20.35;;;;;;;26.06;65.28;99103.97;6066114;23;20026;-85
2021/07/14 10:06:25;;;;;;;23.08;20.00;;;;;;;26.07;65.21;99102.09;6066402;23;20031;-84
2021/07/14 10:08:52;;;;;;;22.65;20.38;;;;;;;26.09;65.17;99105.44;6067741;23;20027;-82
2021/07/14 10:11:24;;;;;;;23.23;20.70;;;;;;;26.06;64.84;99103.13;6068746;23;20034;-86
2021/07/14 10:14:08;;;;;;;23.13;20.75;;;;;;;26.01;65.34;99117.22;6067103;23;20027;-84
2021/07/14 10:16:41;;;;;;;23.40;20.27;;;;;;;26.01;65.43;99118.06;6066797;23;20022;-84
2021/07/14 10:19:12;;;;;;;21.83;19.65;;;;;;;25.99;65.08;99124.69;6067332;23;20058;-84
2021/07/14 10:21:44;;;;;;;23.52;20.85;;;;;;;25.93;64.93;99114.75;6067880;23;20027;-84
2021/07/14 10:24:19;;;;;;;24.13;21.52;;;;;;;25.86;65.29;99120.09;6066333;23;20023;-84
2021/07/14 10:26:48;;;;;;;23.40;21.08;;;;;;;25.83;64.75;99117.81;6067655;23;20049;-83
2021/07/14 10:29:18;;;;;;;23.25;20.90;;;;;;;25.74;64.97;99112.63;6066034;23;20062;-83
2021/07/14 10:31:48;;;;;;;23.38;21.08;;;;;;;25.68;65.35;99112.59;6067881;23;20030;-84
2021/07/14 10:34:17;;;;;;;24.70;22.10;;;;;;;25.62;65.56;99109.69;6067595;23;20082;-84
2021/07/14 10:36:49;;;;;;;23.20;20.90;;;;;;;25.58;65.63;99111.13;6067740;23;20027;-84
2021/07/14 10:39:18;;;;;;;23.75;21.20;;;;;;;25.55;66.17;99111.50;6066079;23;20031;-84
2021/07/14 10:41:45;;;;;;;24.85;22.10;;;;;;;25.55;66.21;99116.88;6067395;23;20037;-84
2021/07/14 10:44:14;;;;;;;25.63;22.98;;;;;;;25.57;66.58;99111.31;6067513;23;20029;-84
2021/07/14 10:46:40;;;;;;;24.50;21.83;;;;;;;25.58;66.60;99111.13;6067231;23;20088;-84
2021/07/14 10:49:09;;;;;;;22.90;20.60;;;;;;;25.61;67.00;99104.50;6067396;23;20126;-85
2021/07/14 10:51:37;;;;;;;24.20;21.60;;;;;;;25.63;66.58;99110.50;6067652;23;20097;-85
2021/07/14 10:54:07;;;;;;;23.25;20.98;;;;;;;25.64;66.73;99112.16;6066934;23;20034;-84
2021/07/14 10:56:36;;;;;;;23.52;20.90;;;;;;;25.66;67.04;99111.94;6066202;23;20022;-84
2021/07/14 10:59:04;;;;;;;22.15;19.95;;;;;;;25.67;66.98;99105.56;6067316;23;20019;-84
2021/07/14 11:01:49;;;;;;;22.35;19.95;;;;;;;25.63;67.26;99092.47;6068994;23;20029;-85
2021/07/14 11:04:25;;;;;;;22.10;19.92;;;;;;;25.68;67.23;99091.84;6067051;23;20026;-86
2021/07/14 11:07:08;;;;;;;20.70;18.70;;;;;;;25.72;67.05;99093.09;6067012;23;20027;-85
2021/07/14 11:09:47;;;;;;;22.65;20.15;;;;;;;25.76;67.20;99097.06;6066681;23;20034;-86
2021/07/14 11:12:27;;;;;;;20.20;18.17;;;;;;;25.84;67.22;99097.91;6068136;23;20030;-86
2021/07/14 11:14:59;;;;;;;22.20;19.98;;;;;;;25.85;66.64;99094.16;6066873;23;20042;-84
2021/07/14 11:17:30;;;;;;;20.38;18.40;;;;;;;25.85;66.72;99092.31;6067507;23;20031;-84
2021/07/14 11:20:12;;;;;;;22.10;19.35;;;;;;;25.84;66.99;99098.75;6066976;23;20034;-85
2021/07/14 11:22:47;;;;;;;22.48;20.23;;;;;;;25.88;66.80;99108.09;6066052;23;20030;-85
2021/07/14 11:25:20;;;;;;;21.45;19.27;;;;;;;25.87;67.04;99095.63;6065685;23;20023;-85
2021/07/14 11:27:58;;;;;;;22.23;19.98;;;;;;;25.88;66.93;99083.00;6066642;23;20019;-84
2021/07/14 11:30:28;;;;;;;22.73;19.25;;;;;;;25.89;67.03;99082.78;6066262;23;20027;-84
2021/07/14 11:32:57;;;;;;;21.52;19.23;;;;;;;25.92;66.94;99076.16;6067070;23;20022;-85
2021/07/14 11:35:45;;;;;;;22.42;19.75;;;;;;;25.88;67.25;99073.03;6067020;23;20034;-85